Time;durP1;ratioP1;P1;durP2;ratioP2;P2;SDS_P1;SDS_P2;PMS_P1;PMS_P2;Temp;Humidity;BMP_temperature;BMP_pressure;BME280_temperature;BME280_humidity;BME280_pressure;Samples;Min_cycle;Max_cycle;Signal;HPM_P1;HPM_P2
2022/11/24 00:01:14;;;;;;;4.22;2.55;;;;;;;;;;4995894;28;20377;-78
2022/11/24 00:03:40;;;;;;;4.00;2.75;;;;;;;;;;4995789;28;20022;-79
2022/11/24 00:06:07;;;;;;;14.63;5.25;;;;;;;;;;4995957;28;20066;-76
2022/11/24 00:08:34;;;;;;;9.05;4.75;;;;;;;;;;4995874;28;20482;-78
2022/11/24 00:11:11;;;;;;;7.32;4.57;;;;;;;;;;4995837;28;20473;-79
2022/11/24 00:13:38;;;;;;;10.82;6.70;;;;;;;;;;4995629;28;20474;-79
2022/11/24 00:16:08;;;;;;;8.82;6.60;;;;;;;;;;4995639;28;20102;-75
2022/11/24 00:18:34;;;;;;;14.80;7.82;;;;;;;;;;4995570;28;20022;-78
2022/11/24 00:21:00;;;;;;;10.40;8.32;;;;;;;;;;4995659;28;20026;-80
2022/11/24 00:23:26;;;;;;;16.63;11.57;;;;;;;;;;4995408;28;20034;-79
2022/11/24 00:25:52;;;;;;;21.33;15.73;;;;;;;;;;4995245;28;20077;-76
2022/11/24 00:28:18;;;;;;;14.52;9.48;;;;;;;;;;4995547;28;20077;-80
2022/11/24 00:30:44;;;;;;;15.55;11.35;;;;;;;;;;4995418;28;20026;-78
2022/11/24 00:33:10;;;;;;;8.65;6.63;;;;;;;;;;4995258;28;20022;-75
2022/11/24 00:35:37;;;;;;;10.85;6.75;;;;;;;;;;4995244;28;20026;-75
2022/11/24 00:38:03;;;;;;;9.23;6.30;;;;;;;;;;4995317;28;20022;-75
2022/11/24 00:40:29;;;;;;;5.30;4.30;;;;;;;;;;4977681;28;20022;-75
2022/11/24 00:42:55;;;;;;;11.65;4.85;;;;;;;;;;4995310;28;20058;-78
2022/11/24 00:45:21;;;;;;;10.07;6.65;;;;;;;;;;4995115;28;20050;-77
2022/11/24 00:47:47;;;;;;;11.50;8.15;;;;;;;;;;4977645;28;20389;-76
2022/11/24 00:50:13;;;;;;;6.65;4.57;;;;;;;;;;4977679;28;20034;-74
2022/11/24 00:52:39;;;;;;;9.80;4.40;;;;;;;;;;4977634;28;20038;-79
2022/11/24 00:55:05;;;;;;;6.95;3.20;;;;;;;;;;4994964;28;20261;-76
2022/11/24 00:57:34;;;;;;;4.45;2.03;;;;;;;;;;4994787;28;20026;-78
2022/11/24 01:00:00;;;;;;;5.50;2.28;;;;;;;;;;4994913;28;20477;-78
2022/11/24 01:02:26;;;;;;;3.80;2.22;;;;;;;;;;4994842;28;20034;-77
2022/11/24 01:04:52;;;;;;;3.25;2.80;;;;;;;;;;4994787;28;20414;-78
2022/11/24 01:07:18;;;;;;;5.28;2.88;;;;;;;;;;4994730;28;20030;-78
2022/11/24 01:09:44;;;;;;;4.10;2.35;;;;;;;;;;4994748;28;20026;-76
2022/11/24 01:12:10;;;;;;;3.15;2.50;;;;;;;;;;4977260;28;20535;-77
2022/11/24 01:14:36;;;;;;;4.55;2.35;;;;;;;;;;4994525;28;20038;-77
2022/11/24 01:17:03;;;;;;;6.40;3.67;;;;;;;;;;4994670;28;20026;-74
2022/11/24 01:19:29;;;;;;;7.85;4.05;;;;;;;;;;4994520;28;20029;-78
2022/11/24 01:21:55;;;;;;;6.55;4.38;;;;;;;;;;4994512;28;20084;-75
2022/11/24 01:24:23;;;;;;;6.82;5.30;;;;;;;;;;4976910;28;20062;-78
2022/11/24 01:26:49;;;;;;;8.45;4.85;;;;;;;;;;4994525;28;20030;-73
2022/11/24 01:29:15;;;;;;;6.93;4.97;;;;;;;;;;4994416;28;20034;-74
2022/11/24 01:31:41;;;;;;;8.73;4.95;;;;;;;;;;4994324;28;20058;-73
2022/11/24 01:34:07;;;;;;;11.77;7.18;;;;;;;;;;4993732;28;20034;-78
2022/11/24 01:36:33;;;;;;;20.13;12.32;;;;;;;;;;4976821;28;20496;-77
2022/11/24 01:38:59;;;;;;;12.75;8.07;;;;;;;;;;4994374;28;20477;-77
2022/11/24 01:41:26;;;;;;;9.60;6.22;;;;;;;;;;4994096;28;20030;-75
2022/11/24 01:43:53;;;;;;;9.52;7.03;;;;;;;;;;4994200;28;20026;-74
2022/11/24 01:46:37;;;;;;;6.55;5.25;;;;;;;;;;4994094;28;20149;-77
2022/11/24 01:49:26;;;;;;;12.57;8.07;;;;;;;;;;4994172;28;20041;-76
2022/11/24 01:52:00;;;;;;;5.80;3.80;;;;;;;;;;4994093;28;20027;-77
2022/11/24 01:54:31;;;;;;;8.00;4.50;;;;;;;;;;4994043;28;20023;-77
2022/11/24 01:56:59;;;;;;;6.45;3.67;;;;;;;;;;4994186;28;20026;-77
2022/11/24 01:59:26;;;;;;;6.82;3.38;;;;;;;;;;4994005;28;20050;-74
2022/11/24 02:01:52;;;;;;;5.30;3.10;;;;;;;;;;4994066;28;20517;-77
2022/11/24 02:04:22;;;;;;;6.50;3.63;;;;;;;;;;4993965;28;20101;-74
2022/11/24 02:06:50;;;;;;;6.55;4.50;;;;;;;;;;4994015;28;20101;-78
2022/11/24 02:09:19;;;;;;;9.68;6.32;;;;;;;;;;4993889;28;20030;-76
2022/11/24 02:11:46;;;;;;;8.13;4.13;;;;;;;;;;4994013;28;20034;-77
2022/11/24 02:14:14;;;;;;;7.18;3.30;;;;;;;;;;4993813;28;20029;-77
2022/11/24 02:16:42;;;;;;;5.53;3.00;;;;;;;;;;4993887;28;20034;-79
2022/11/24 02:19:27;;;;;;;5.93;3.55;;;;;;;;;;4993905;28;20379;-78
2022/11/24 02:21:52;;;;;;;;;;;;;;;;;;4994183;28;20022;-78
2022/11/24 02:24:24;;;;;;;7.25;4.28;;;;;;;;;;4992216;28;19924;-76
2022/11/24 02:26:51;;;;;;;8.40;3.80;;;;;;;;;;4993928;28;20030;-78
2022/11/24 02:29:19;;;;;;;4.00;3.05;;;;;;;;;;4993767;28;20027;-75
2022/11/24 02:31:47;;;;;;;7.60;3.50;;;;;;;;;;4993787;28;20045;-78
2022/11/24 02:34:13;;;;;;;6.07;3.53;;;;;;;;;;4993747;28;20097;-76
2022/11/24 02:36:39;;;;;;;5.95;3.85;;;;;;;;;;4993778;28;20023;-76
2022/11/24 02:39:10;;;;;;;7.78;4.22;;;;;;;;;;4993672;28;20070;-77
2022/11/24 02:41:37;;;;;;;8.00;3.85;;;;;;;;;;4993676;28;20026;-75
2022/11/24 02:44:03;;;;;;;8.75;3.50;;;;;;;;;;4993589;28;20025;-76
2022/11/24 02:46:29;;;;;;;5.35;3.83;;;;;;;;;;4995548;28;20109;-78
2022/11/24 02:48:55;;;;;;;9.82;4.38;;;;;;;;;;4997431;28;20069;-78
2022/11/24 02:51:21;;;;;;;4.35;2.97;;;;;;;;;;4997297;28;20023;-79
2022/11/24 02:53:48;;;;;;;6.32;4.72;;;;;;;;;;4997345;28;20023;-76
2022/11/24 02:56:14;;;;;;;6.07;4.28;;;;;;;;;;4997120;28;20030;-76
2022/11/24 02:58:40;;;;;;;8.38;5.43;;;;;;;;;;4997191;28;20444;-75
2022/11/24 03:01:06;;;;;;;8.20;4.80;;;;;;;;;;4997013;28;20030;-74
2022/11/24 03:03:32;;;;;;;6.07;4.03;;;;;;;;;;4997096;28;20046;-80
2022/11/24 03:05:58;;;;;;;7.65;4.10;;;;;;;;;;4979482;28;20437;-79
2022/11/24 03:08:24;;;;;;;7.32;6.03;;;;;;;;;;4996973;28;20050;-77
2022/11/24 03:10:50;;;;;;;6.32;5.15;;;;;;;;;;4996969;28;20026;-74
2022/11/24 03:13:16;;;;;;;6.68;4.45;;;;;;;;;;4996840;28;20066;-80
2022/11/24 03:15:42;;;;;;;6.70;5.13;;;;;;;;;;4996854;28;20033;-81
2022/11/24 03:18:08;;;;;;;5.65;4.90;;;;;;;;;;4996797;28;20034;-77
2022/11/24 03:20:34;;;;;;;8.38;5.22;;;;;;;;;;4996712;28;20023;-75
2022/11/24 03:23:00;;;;;;;8.63;4.25;;;;;;;;;;4996705;28;20027;-75
2022/11/24 03:25:26;;;;;;;7.60;5.18;;;;;;;;;;4978965;28;20057;-79
2022/11/24 03:27:53;;;;;;;7.18;4.30;;;;;;;;;;4996671;28;20033;-78
2022/11/24 03:30:19;;;;;;;5.90;3.90;;;;;;;;;;4996598;28;20023;-79
2022/11/24 03:32:45;;;;;;;6.97;5.03;;;;;;;;;;4996579;28;20368;-78
2022/11/24 03:35:11;;;;;;;9.18;5.50;;;;;;;;;;4978941;28;20034;-77
2022/11/24 03:37:37;;;;;;;12.80;7.80;;;;;;;;;;4996427;28;20022;-80
2022/11/24 03:40:03;;;;;;;10.93;8.88;;;;;;;;;;4996450;28;20025;-77
2022/11/24 03:42:29;;;;;;;16.90;12.98;;;;;;;;;;4996326;28;20556;-79
2022/11/24 03:44:55;;;;;;;23.67;16.52;;;;;;;;;;4996419;28;20027;-76
2022/11/24 03:47:21;;;;;;;25.23;18.23;;;;;;;;;;4996237;28;20031;-76
2022/11/24 03:49:47;;;;;;;11.07;8.93;;;;;;;;;;4996159;28;20034;-76
2022/11/24 03:52:14;;;;;;;8.75;5.97;;;;;;;;;;4996203;28;20023;-76
2022/11/24 03:54:41;;;;;;;7.55;4.55;;;;;;;;;;4996146;28;20026;-75
2022/11/24 03:57:07;;;;;;;5.55;4.35;;;;;;;;;;4977856;28;20471;-78
2022/11/24 03:59:33;;;;;;;10.80;7.38;;;;;;;;;;4996136;28;20022;-78
2022/11/24 04:01:59;;;;;;;34.67;26.30;;;;;;;;;;4996013;28;20019;-79
2022/11/24 04:04:25;;;;;;;9.43;5.05;;;;;;;;;;4996139;28;20030;-75
2022/11/24 04:06:51;;;;;;;9.10;5.93;;;;;;;;;;4995766;28;20034;-79
2022/11/24 04:09:17;;;;;;;8.55;5.53;;;;;;;;;;4995840;28;20382;-74
2022/11/24 04:14:28;;;;;;;8.65;4.28;;;;;;;;;;4995875;28;20041;-75
2022/11/24 04:16:54;;;;;;;8.48;3.88;;;;;;;;;;4995796;28;20026;-78
2022/11/24 04:19:20;;;;;;;8.63;4.00;;;;;;;;;;4995636;28;20027;-73
2022/11/24 04:21:46;;;;;;;9.18;4.43;;;;;;;;;;4995692;28;20054;-77
2022/11/24 04:24:13;;;;;;;5.10;3.75;;;;;;;;;;4994595;28;20489;-76
2022/11/24 04:26:39;;;;;;;11.68;7.93;;;;;;;;;;4995431;28;20444;-78
2022/11/24 04:29:05;;;;;;;6.00;3.65;;;;;;;;;;4995175;28;20098;-73
2022/11/24 04:31:31;;;;;;;13.68;8.25;;;;;;;;;;4995550;28;20030;-77
2022/11/24 04:33:57;;;;;;;6.63;2.80;;;;;;;;;;4995267;28;20026;-77
2022/11/24 04:36:24;;;;;;;6.15;3.60;;;;;;;;;;4995142;28;20030;-76
2022/11/24 04:38:51;;;;;;;7.97;3.50;;;;;;;;;;4995216;28;20054;-76
2022/11/24 04:41:17;;;;;;;5.32;3.63;;;;;;;;;;4994810;28;20026;-74
2022/11/24 04:43:43;;;;;;;6.65;3.67;;;;;;;;;;4994836;28;20022;-77
2022/11/24 04:46:10;;;;;;;5.75;3.28;;;;;;;;;;4995173;28;20045;-77
2022/11/24 04:48:36;;;;;;;5.97;2.80;;;;;;;;;;4995129;28;20038;-83
2022/11/24 04:51:06;;;;;;;4.28;2.53;;;;;;;;;;4994910;28;20393;-82
2022/11/24 04:53:32;;;;;;;4.82;2.53;;;;;;;;;;4994946;28;20027;-82
2022/11/24 04:55:58;;;;;;;8.57;4.65;;;;;;;;;;4994764;28;20058;-83
2022/11/24 04:58:24;;;;;;;5.05;2.42;;;;;;;;;;4995052;28;20073;-80
2022/11/24 05:00:50;;;;;;;3.38;2.00;;;;;;;;;;4977436;28;20018;-82
2022/11/24 05:03:16;;;;;;;5.30;2.72;;;;;;;;;;4994329;28;20030;-82
2022/11/24 05:05:42;;;;;;;3.45;2.15;;;;;;;;;;4994597;28;20030;-80
2022/11/24 05:08:08;;;;;;;3.20;2.50;;;;;;;;;;4993649;28;20485;-80
2022/11/24 05:10:34;;;;;;;4.75;3.08;;;;;;;;;;4994161;28;20077;-81
2022/11/24 05:13:01;;;;;;;7.22;4.72;;;;;;;;;;4994560;28;20524;-81
2022/11/24 05:15:27;;;;;;;7.82;5.25;;;;;;;;;;4993188;28;20026;-80
2022/11/24 05:17:54;;;;;;;5.25;4.18;;;;;;;;;;4994506;28;20462;-81
2022/11/24 05:20:20;;;;;;;6.45;4.28;;;;;;;;;;4977092;28;20026;-80
2022/11/24 05:22:46;;;;;;;75.93;35.75;;;;;;;;;;4994457;28;20018;-80
2022/11/24 05:25:13;;;;;;;111.85;48.20;;;;;;;;;;4994128;28;20082;-81
2022/11/24 05:27:39;;;;;;;53.20;24.85;;;;;;;;;;4994228;28;20022;-80
2022/11/24 05:30:06;;;;;;;14.80;7.80;;;;;;;;;;4994532;28;20640;-81
2022/11/24 05:32:35;;;;;;;12.48;7.00;;;;;;;;;;4976871;28;20486;-83
2022/11/24 05:35:04;;;;;;;104.00;53.47;;;;;;;;;;4994113;28;20027;-81
2022/11/24 05:37:32;;;;;;;103.05;51.97;;;;;;;;;;4994199;28;20097;-81
2022/11/24 05:40:00;;;;;;;27.98;13.20;;;;;;;;;;4994097;28;20109;-81
2022/11/24 05:45:12;;;;;;;19.13;13.40;;;;;;;;;;4994278;28;20042;-82
2022/11/24 05:47:39;;;;;;;18.30;12.73;;;;;;;;;;4994070;28;20109;-80
2022/11/24 05:50:05;;;;;;;19.45;10.95;;;;;;;;;;4994027;28;20030;-81
2022/11/24 05:52:31;;;;;;;16.20;10.57;;;;;;;;;;4988879;28;20057;-81
2022/11/24 05:54:57;;;;;;;13.55;8.20;;;;;;;;;;4974472;28;20394;-81
2022/11/24 05:57:24;;;;;;;13.88;9.38;;;;;;;;;;4982608;28;20019;-83
2022/11/24 05:59:50;;;;;;;14.60;11.98;;;;;;;;;;4992320;28;20078;-82
2022/11/24 06:02:16;;;;;;;19.70;12.43;;;;;;;;;;4994025;28;20542;-82
2022/11/24 06:04:42;;;;;;;14.50;10.90;;;;;;;;;;4976209;28;20037;-79
2022/11/24 06:07:10;;;;;;;16.20;11.00;;;;;;;;;;4996614;28;20027;-83
2022/11/24 06:09:36;;;;;;;17.95;11.70;;;;;;;;;;4996950;28;20026;-80
2022/11/24 06:12:03;;;;;;;14.52;10.32;;;;;;;;;;4993497;28;20022;-82
2022/11/24 06:14:29;;;;;;;8.57;5.82;;;;;;;;;;4993020;28;20516;-83
2022/11/24 06:16:55;;;;;;;11.20;6.50;;;;;;;;;;4988925;28;20035;-82
2022/11/24 06:19:21;;;;;;;10.75;7.32;;;;;;;;;;4986890;28;20022;-81
2022/11/24 06:21:47;;;;;;;9.18;5.25;;;;;;;;;;5007974;28;20022;-83
2022/11/24 06:24:13;;;;;;;7.72;4.60;;;;;;;;;;4987540;28;20070;-82
2022/11/24 06:26:40;;;;;;;10.05;5.10;;;;;;;;;;4978035;28;20027;-82
2022/11/24 06:29:06;;;;;;;171.70;102.88;;;;;;;;;;4975027;28;20023;-83
2022/11/24 06:31:32;;;;;;;142.95;91.22;;;;;;;;;;4980843;28;20022;-83
2022/11/24 06:33:59;;;;;;;103.28;67.97;;;;;;;;;;5000499;28;20098;-81
2022/11/24 06:36:26;;;;;;;90.88;56.25;;;;;;;;;;4994878;28;20480;-82
2022/11/24 06:38:52;;;;;;;65.85;42.58;;;;;;;;;;4994668;28;20496;-79
2022/11/24 06:41:18;;;;;;;21.20;14.77;;;;;;;;;;4994497;28;20089;-83
2022/11/24 06:43:45;;;;;;;26.92;20.02;;;;;;;;;;4994077;28;20023;-80
2022/11/24 06:46:11;;;;;;;49.65;32.55;;;;;;;;;;4988095;28;20030;-79
2022/11/24 06:48:38;;;;;;;54.53;34.28;;;;;;;;;;4978165;28;20035;-78
2022/11/24 06:51:05;;;;;;;52.35;34.40;;;;;;;;;;5003243;28;20030;-81
2022/11/24 06:53:38;;;;;;;33.65;23.63;;;;;;;;;;4989054;28;20121;-81
2022/11/24 06:56:05;;;;;;;26.27;16.73;;;;;;;;;;4975316;28;20027;-77
2022/11/24 06:58:31;;;;;;;25.83;17.35;;;;;;;;;;4975534;28;20482;-83
2022/11/24 07:00:57;;;;;;;22.23;15.02;;;;;;;;;;4992238;28;20081;-83
2022/11/24 07:03:23;;;;;;;18.33;13.15;;;;;;;;;;4994491;28;20040;-81
2022/11/24 07:05:54;;;;;;;16.98;11.70;;;;;;;;;;4994167;28;20034;-83
2022/11/24 07:08:20;;;;;;;17.73;13.10;;;;;;;;;;4994799;28;20027;-86
2022/11/24 07:10:46;;;;;;;20.98;15.52;;;;;;;;;;4976783;28;20447;-85
2022/11/24 07:13:13;;;;;;;25.77;19.25;;;;;;;;;;4994498;28;20592;-84
2022/11/24 07:15:39;;;;;;;41.25;26.98;;;;;;;;;;4993866;28;20027;-84
2022/11/24 07:18:08;;;;;;;45.88;31.27;;;;;;;;;;4993231;28;20058;-85
2022/11/24 07:20:34;;;;;;;83.65;54.83;;;;;;;;;;4994305;28;20030;-89
2022/11/24 07:23:00;;;;;;;118.18;70.53;;;;;;;;;;4994030;28;20030;-84
2022/11/24 07:25:26;;;;;;;102.00;49.10;;;;;;;;;;4963095;28;20046;-87
2022/11/24 07:27:56;;;;;;;87.78;47.78;;;;;;;;;;4957355;28;20027;-87
2022/11/24 07:30:23;;;;;;;151.50;62.97;;;;;;;;;;4956695;28;20042;-75
2022/11/24 07:32:49;;;;;;;136.40;58.78;;;;;;;;;;4985789;28;20018;-83
2022/11/24 07:35:15;;;;;;;108.32;50.00;;;;;;;;;;4975949;28;20490;-83
2022/11/24 07:37:41;;;;;;;120.28;54.33;;;;;;;;;;4994361;28;20022;-82
2022/11/24 07:40:07;;;;;;;89.60;47.65;;;;;;;;;;4993364;28;20022;-81
2022/11/24 07:42:33;;;;;;;108.93;50.50;;;;;;;;;;4973843;28;20022;-83
2022/11/24 07:45:00;;;;;;;101.50;56.65;;;;;;;;;;4972368;28;20030;-80
2022/11/24 07:47:26;;;;;;;121.32;65.10;;;;;;;;;;4973804;28;20039;-80
2022/11/24 07:49:52;;;;;;;121.25;84.13;;;;;;;;;;4974217;28;20066;-81
2022/11/24 07:52:18;;;;;;;96.22;60.15;;;;;;;;;;4973908;28;20033;-80
2022/11/24 07:54:44;;;;;;;116.30;63.83;;;;;;;;;;4973946;28;20037;-81
2022/11/24 07:57:10;;;;;;;102.03;55.35;;;;;;;;;;4971843;28;20379;-82
2022/11/24 07:59:36;;;;;;;95.80;49.78;;;;;;;;;;4954992;29;20024;-81
2022/11/24 08:02:02;;;;;;;81.53;44.83;;;;;;;;;;4944324;28;20027;-81
2022/11/24 08:04:28;;;;;;;107.43;55.15;;;;;;;;;;4973209;28;20031;-75
2022/11/24 08:06:54;;;;;;;124.13;58.88;;;;;;;;;;4970924;28;20035;-84
2022/11/24 08:09:20;;;;;;;110.28;59.45;;;;;;;;;;4954616;29;20031;-81
2022/11/24 08:11:46;;;;;;;95.50;53.72;;;;;;;;;;4963942;28;20131;-80
2022/11/24 08:14:12;;;;;;;112.22;50.60;;;;;;;;;;4964477;28;20023;-80
2022/11/24 08:16:38;;;;;;;151.75;61.85;;;;;;;;;;4970432;28;20027;-82
2022/11/24 08:19:04;;;;;;;107.95;54.97;;;;;;;;;;4964589;28;20019;-81
2022/11/24 08:21:34;;;;;;;159.48;71.18;;;;;;;;;;4961708;28;20027;-81
2022/11/24 08:24:00;;;;;;;129.40;64.35;;;;;;;;;;4971249;28;20131;-84
2022/11/24 08:26:26;;;;;;;619.95;216.02;;;;;;;;;;4982981;28;20030;-79
2022/11/24 08:29:11;;;;;;;139.65;60.45;;;;;;;;;;4973507;28;20062;-83
2022/11/24 08:31:38;;;;;;;86.43;40.80;;;;;;;;;;4973249;28;20034;-82
2022/11/24 08:34:05;;;;;;;91.57;40.47;;;;;;;;;;4983388;28;20130;-84
2022/11/24 08:36:31;;;;;;;73.35;37.80;;;;;;;;;;4981838;28;20033;-82
2022/11/24 08:38:59;;;;;;;64.00;37.13;;;;;;;;;;4971431;28;20412;-80
2022/11/24 08:41:25;;;;;;;370.58;124.13;;;;;;;;;;5004215;28;20018;-79
2022/11/24 08:43:52;;;;;;;84.57;42.88;;;;;;;;;;4992404;28;20565;-85
2022/11/24 08:46:18;;;;;;;57.95;32.47;;;;;;;;;;4992003;28;20445;-82
2022/11/24 08:49:06;;;;;;;50.85;26.42;;;;;;;;;;4990428;28;20038;-87
2022/11/24 08:51:32;;;;;;;15.88;11.88;;;;;;;;;;4973208;28;20047;-82
2022/11/24 08:53:59;;;;;;;15.50;9.57;;;;;;;;;;4989901;28;20034;-81
2022/11/24 08:56:29;;;;;;;20.20;11.40;;;;;;;;;;4991752;28;20030;-82
2022/11/24 08:58:55;;;;;;;12.43;9.40;;;;;;;;;;4987012;28;20022;-81
2022/11/24 09:01:22;;;;;;;20.95;14.38;;;;;;;;;;4985592;28;20026;-82
2022/11/24 09:03:49;;;;;;;27.33;17.13;;;;;;;;;;4987324;28;20054;-80
2022/11/24 09:06:16;;;;;;;24.60;15.88;;;;;;;;;;4975693;28;20030;-80
2022/11/24 09:08:42;;;;;;;29.50;20.50;;;;;;;;;;4982412;28;20037;-79
2022/11/24 09:11:11;;;;;;;27.20;17.33;;;;;;;;;;4979170;28;20027;-81
2022/11/24 09:13:38;;;;;;;13.32;9.35;;;;;;;;;;4997636;28;20054;-80
2022/11/24 09:16:04;;;;;;;12.80;8.48;;;;;;;;;;4991708;28;20085;-78
2022/11/24 09:18:30;;;;;;;9.55;5.30;;;;;;;;;;4991802;28;20478;-79
2022/11/24 09:21:26;;;;;;;7.18;4.65;;;;;;;;;;4991793;28;20026;-80
2022/11/24 09:23:53;;;;;;;10.52;5.78;;;;;;;;;;4970811;28;20034;-82
2022/11/24 09:26:21;;;;;;;4.78;3.00;;;;;;;;;;4991980;28;20109;-82
2022/11/24 09:28:48;;;;;;;12.85;9.13;;;;;;;;;;4991643;28;20034;-80
2022/11/24 09:31:18;;;;;;;6.30;4.32;;;;;;;;;;4991151;28;20041;-80
2022/11/24 09:33:45;;;;;;;7.82;3.95;;;;;;;;;;4988320;28;20030;-79
2022/11/24 09:36:12;;;;;;;5.75;4.00;;;;;;;;;;4992108;28;20481;-80
2022/11/24 09:38:38;;;;;;;5.18;3.45;;;;;;;;;;4991630;28;20502;-80
2022/11/24 09:41:12;;;;;;;8.32;4.93;;;;;;;;;;4991626;28;20041;-80
2022/11/24 09:43:45;;;;;;;8.95;5.75;;;;;;;;;;4991486;28;20032;-79
2022/11/24 09:46:16;;;;;;;6.55;3.88;;;;;;;;;;4991495;28;20030;-81
2022/11/24 09:48:44;;;;;;;8.90;5.28;;;;;;;;;;4991698;28;20034;-80
2022/11/24 09:51:12;;;;;;;9.40;4.68;;;;;;;;;;4991437;28;20026;-81
2022/11/24 09:53:43;;;;;;;7.40;4.38;;;;;;;;;;4990214;28;20030;-78
2022/11/24 09:56:20;;;;;;;42.28;34.33;;;;;;;;;;4991001;28;20038;-79
2022/11/24 09:59:05;;;;;;;24.80;22.00;;;;;;;;;;4988426;28;20110;-74
2022/11/24 10:01:31;;;;;;;;;;;;;;;;;;4965248;28;20026;-80
2022/11/24 10:03:58;;;;;;;10.50;7.80;;;;;;;;;;4973888;28;20365;-81
2022/11/24 10:06:43;;;;;;;11.35;7.32;;;;;;;;;;4991358;28;20393;-79
2022/11/24 10:09:09;;;;;;;;;;;;;;;;;;4991989;28;20034;-80
2022/11/24 10:11:50;;;;;;;13.40;7.85;;;;;;;;;;4991781;28;20343;-79
2022/11/24 10:14:35;;;;;;;9.73;6.95;;;;;;;;;;4991477;28;20094;-79
2022/11/24 10:17:01;;;;;;;;;;;;;;;;;;4991842;28;20552;-80
2022/11/24 10:19:46;;;;;;;11.75;8.27;;;;;;;;;;4997044;28;19917;-79
2022/11/24 10:22:14;;;;;;;14.65;9.35;;;;;;;;;;4993278;28;20022;-81
2022/11/24 10:24:59;;;;;;;10.88;7.75;;;;;;;;;;4997742;28;20046;-79
2022/11/24 10:27:33;;;;;;;9.25;7.72;;;;;;;;;;5002344;28;20069;-83
2022/11/24 10:30:00;;;;;;;12.70;9.93;;;;;;;;;;4974314;28;20031;-81
2022/11/24 10:32:44;;;;;;;11.27;7.95;;;;;;;;;;4988339;28;20240;-78
2022/11/24 10:35:16;;;;;;;5.72;4.68;;;;;;;;;;4997794;28;20034;-83
2022/11/24 10:37:55;;;;;;;8.10;5.90;;;;;;;;;;4981297;28;20031;-76
2022/11/24 10:40:24;;;;;;;9.48;6.53;;;;;;;;;;4991350;28;20056;-82
2022/11/24 10:42:51;;;;;;;8.10;6.10;;;;;;;;;;4991222;28;20474;-77
2022/11/24 10:45:19;;;;;;;7.10;4.72;;;;;;;;;;4994558;28;20018;-79
2022/11/24 10:47:45;;;;;;;6.68;4.68;;;;;;;;;;4992183;28;20057;-79
2022/11/24 10:50:20;;;;;;;6.75;5.20;;;;;;;;;;4991999;28;20108;-82
2022/11/24 10:52:53;;;;;;;9.50;5.45;;;;;;;;;;4985783;28;20041;-80
2022/11/24 10:55:19;;;;;;;4.38;3.08;;;;;;;;;;4980257;28;20077;-80
2022/11/24 10:57:45;;;;;;;5.45;3.90;;;;;;;;;;4983053;28;20105;-81
2022/11/24 11:00:20;;;;;;;8.18;4.00;;;;;;;;;;4970246;28;20370;-80
2022/11/24 11:02:51;;;;;;;6.15;4.13;;;;;;;;;;4968139;28;20022;-81
2022/11/24 11:05:32;;;;;;;5.85;4.30;;;;;;;;;;4969895;28;20031;-79
2022/11/24 11:08:14;;;;;;;4.03;3.20;;;;;;;;;;4980210;28;20121;-82
2022/11/24 11:10:40;;;;;;;5.35;3.85;;;;;;;;;;4993761;28;20030;-79
2022/11/24 11:13:25;;;;;;;5.05;3.15;;;;;;;;;;5000554;28;20037;-79
2022/11/24 11:15:51;;;;;;;;;;;;;;;;;;4994378;28;20040;-83
2022/11/24 11:18:19;;;;;;;4.68;3.08;;;;;;;;;;4997096;28;19910;-81
2022/11/24 11:20:49;;;;;;;9.27;5.20;;;;;;;;;;4975410;28;20030;-82
2022/11/24 11:23:20;;;;;;;6.20;4.25;;;;;;;;;;4994612;28;20474;-78
2022/11/24 11:25:46;;;;;;;5.28;3.78;;;;;;;;;;4987966;28;20522;-82
2022/11/24 11:28:31;;;;;;;6.47;4.28;;;;;;;;;;4976740;28;20027;-81
2022/11/24 11:30:58;;;;;;;;;;;;;;;;;;4987930;28;20038;-79
2022/11/24 11:33:28;;;;;;;5.05;4.32;;;;;;;;;;4988113;28;19905;-82
2022/11/24 11:35:55;;;;;;;3.22;2.58;;;;;;;;;;4990403;28;20041;-79
2022/11/24 11:38:21;;;;;;;4.70;3.25;;;;;;;;;;4982667;28;20027;-77
2022/11/24 11:40:52;;;;;;;3.38;2.90;;;;;;;;;;4983034;28;20029;-79
2022/11/24 11:43:25;;;;;;;2.72;2.50;;;;;;;;;;4983660;28;20019;-81
2022/11/24 11:46:17;;;;;;;6.28;3.97;;;;;;;;;;4983447;28;20031;-82
2022/11/24 11:48:45;;;;;;;5.63;3.55;;;;;;;;;;4949755;28;20057;-80
2022/11/24 11:51:30;;;;;;;4.35;3.00;;;;;;;;;;4983972;28;20034;-81
2022/11/24 11:53:56;;;;;;;;;;;;;;;;;;4984729;28;20117;-82
2022/11/24 11:56:31;;;;;;;6.38;4.53;;;;;;;;;;4988781;28;20379;-79
2022/11/24 11:59:16;;;;;;;4.22;2.70;;;;;;;;;;4967436;28;20577;-82
2022/11/24 12:01:42;;;;;;;;;;;;;;;;;;4982679;28;20393;-78
2022/11/24 12:04:27;;;;;;;3.50;2.47;;;;;;;;;;4989837;28;19917;-82
2022/11/24 12:06:53;;;;;;;;;;;;;;;;;;4986488;28;20030;-80
2022/11/24 12:09:39;;;;;;;3.63;2.28;;;;;;;;;;4982649;28;20373;-78
2022/11/24 12:12:05;;;;;;;13.63;12.18;;;;;;;;;;4981557;28;20030;-83
2022/11/24 12:14:34;;;;;;;7.03;3.20;;;;;;;;;;4974920;28;20042;-83
2022/11/24 12:17:05;;;;;;;6.32;3.17;;;;;;;;;;4980954;28;20490;-81
2022/11/24 12:19:47;;;;;;;3.15;2.47;;;;;;;;;;4995356;28;20027;-80
2022/11/24 12:22:20;;;;;;;2.42;2.22;;;;;;;;;;4980082;28;20019;-82
2022/11/24 12:24:55;;;;;;;8.73;3.20;;;;;;;;;;4979811;28;20058;-78
2022/11/24 12:27:35;;;;;;;3.30;2.55;;;;;;;;;;4984383;28;20030;-84
2022/11/24 12:30:30;;;;;;;3.67;2.30;;;;;;;;;;4978332;28;20018;-80
2022/11/24 12:33:15;;;;;;;5.40;3.50;;;;;;;;;;4982491;28;20051;-81
2022/11/24 12:35:46;;;;;;;6.95;4.20;;;;;;;;;;4979629;28;20046;-82
2022/11/24 12:38:12;;;;;;;3.15;2.15;;;;;;;;;;4958450;28;20562;-80
2022/11/24 12:40:57;;;;;;;3.58;3.05;;;;;;;;;;4984773;28;20090;-81
2022/11/24 12:43:23;;;;;;;;;;;;;;;;;;4989653;28;20030;-80
2022/11/24 12:45:54;;;;;;;3.70;1.95;;;;;;;;;;4993329;28;19910;-81
2022/11/24 12:48:27;;;;;;;4.07;2.22;;;;;;;;;;4986693;28;20031;-80
2022/11/24 12:50:54;;;;;;;2.15;1.30;;;;;;;;;;4992935;28;20093;-79
2022/11/24 12:53:38;;;;;;;3.25;2.20;;;;;;;;;;4992473;28;20385;-79
2022/11/24 12:56:07;;;;;;;3.58;2.30;;;;;;;;;;4986101;28;20026;-81
2022/11/24 12:58:40;;;;;;;4.07;2.90;;;;;;;;;;4983778;28;20034;-79
2022/11/24 13:01:25;;;;;;;4.32;3.10;;;;;;;;;;4979700;28;20027;-85
2022/11/24 13:03:54;;;;;;;3.13;2.42;;;;;;;;;;4986199;28;20553;-81
2022/11/24 13:06:39;;;;;;;5.35;2.72;;;;;;;;;;4992429;28;20030;-81
2022/11/24 13:09:05;;;;;;;;;;;;;;;;;;4991426;28;20496;-78
2022/11/24 13:11:50;;;;;;;3.28;2.40;;;;;;;;;;4983867;28;19910;-81
2022/11/24 13:14:16;;;;;;;5.38;3.03;;;;;;;;;;4985668;28;20165;-82
2022/11/24 13:16:58;;;;;;;6.07;2.65;;;;;;;;;;4991436;28;20447;-80
2022/11/24 13:19:31;;;;;;;6.38;3.40;;;;;;;;;;4974064;28;20031;-79
2022/11/24 13:22:18;;;;;;;2.88;2.08;;;;;;;;;;4976976;28;20101;-79
2022/11/24 13:24:44;;;;;;;3.58;1.80;;;;;;;;;;4974859;28;20057;-80
2022/11/24 13:27:17;;;;;;;4.65;2.60;;;;;;;;;;4995228;28;20026;-78
2022/11/24 13:29:44;;;;;;;3.55;2.08;;;;;;;;;;4983104;28;20033;-81
2022/11/24 13:32:10;;;;;;;3.78;2.70;;;;;;;;;;4986990;28;20466;-82
2022/11/24 13:34:44;;;;;;;8.02;4.30;;;;;;;;;;4993430;28;20387;-79
2022/11/24 13:37:39;;;;;;;5.45;3.47;;;;;;;;;;4984692;28;20029;-80
2022/11/24 13:40:10;;;;;;;5.32;3.60;;;;;;;;;;4989371;28;20076;-81
2022/11/24 13:43:01;;;;;;;6.10;3.90;;;;;;;;;;4978134;28;20035;-80
2022/11/24 13:45:48;;;;;;;6.65;5.07;;;;;;;;;;4981535;28;20031;-81
2022/11/24 13:48:20;;;;;;;4.00;3.22;;;;;;;;;;4987562;28;20030;-80
2022/11/24 13:50:49;;;;;;;3.63;2.30;;;;;;;;;;4987586;28;20034;-79
2022/11/24 13:53:27;;;;;;;5.82;3.58;;;;;;;;;;4978656;28;20101;-80
2022/11/24 13:55:53;;;;;;;7.45;4.32;;;;;;;;;;4958424;28;20050;-79
2022/11/24 13:58:38;;;;;;;5.82;3.38;;;;;;;;;;4989446;28;20019;-81
2022/11/24 14:01:04;;;;;;;9.45;4.93;;;;;;;;;;4989268;28;20029;-80
2022/11/24 14:03:33;;;;;;;10.23;4.47;;;;;;;;;;4990436;28;20089;-82
2022/11/24 14:06:05;;;;;;;7.35;4.70;;;;;;;;;;5003991;28;20030;-81
2022/11/24 14:08:33;;;;;;;4.82;3.15;;;;;;;;;;4990861;28;20494;-82
2022/11/24 14:11:10;;;;;;;102.82;42.40;;;;;;;;;;4973845;28;20026;-81
2022/11/24 14:13:37;;;;;;;20.58;11.15;;;;;;;;;;4988160;28;20034;-82
2022/11/24 14:16:09;;;;;;;6.68;4.32;;;;;;;;;;4984429;28;20122;-79
2022/11/24 14:18:36;;;;;;;8.57;5.28;;;;;;;;;;4990217;28;20038;-78
2022/11/24 14:21:34;;;;;;;7.38;5.68;;;;;;;;;;4990933;28;20105;-79
2022/11/24 14:24:07;;;;;;;4.00;2.92;;;;;;;;;;4944378;28;20088;-79
2022/11/24 14:26:35;;;;;;;3.30;3.00;;;;;;;;;;4997162;28;20034;-78
2022/11/24 14:29:05;;;;;;;4.85;3.42;;;;;;;;;;5000491;28;20077;-80
2022/11/24 14:31:31;;;;;;;6.13;4.80;;;;;;;;;;5006518;28;20026;-79
2022/11/24 14:34:16;;;;;;;4.00;2.90;;;;;;;;;;4989471;28;20022;-79
2022/11/24 14:36:42;;;;;;;;;;;;;;;;;;4992279;28;20030;-81
2022/11/24 14:39:16;;;;;;;6.03;4.70;;;;;;;;;;4987256;28;19925;-80
2022/11/24 14:41:52;;;;;;;7.05;4.90;;;;;;;;;;4976091;28;20019;-79
2022/11/24 14:44:20;;;;;;;7.25;4.85;;;;;;;;;;4977630;28;20074;-79
2022/11/24 14:46:47;;;;;;;8.90;4.72;;;;;;;;;;4982923;28;20500;-79
2022/11/24 14:49:20;;;;;;;8.15;4.88;;;;;;;;;;4996709;28;20026;-79
2022/11/24 14:51:50;;;;;;;10.95;7.78;;;;;;;;;;4996724;28;20041;-80
2022/11/24 14:54:17;;;;;;;8.65;6.00;;;;;;;;;;4996874;28;20489;-79